createdAt,value
2018-11-21T00:00:49.886Z,74.74
2018-11-21T00:03:18.761Z,74.53
2018-11-21T00:05:47.566Z,74.51
2018-11-21T00:08:19.250Z,74.61
2018-11-21T00:10:47.961Z,74.56
2018-11-21T00:13:16.628Z,74.18
2018-11-21T00:15:45.624Z,73.99
2018-11-21T00:18:14.356Z,73.86
2018-11-21T00:20:43.194Z,74.63
2018-11-21T00:23:11.898Z,74.38
2018-11-21T00:25:40.794Z,74.72
2018-11-21T00:28:09.416Z,73.97
2018-11-21T00:30:38.256Z,73.88
2018-11-21T00:33:07.074Z,73.81
2018-11-21T00:35:35.945Z,73.78
2018-11-21T00:38:05.148Z,74.06
2018-11-21T00:40:33.803Z,73.75
2018-11-21T00:43:02.553Z,74.08
2018-11-21T00:45:31.413Z,74.07
2018-11-21T00:47:59.926Z,74.32
2018-11-21T00:50:28.601Z,74.79
2018-11-21T01:44:28.162Z,72.47
2018-11-21T01:46:56.720Z,72.56
2018-11-21T01:49:25.221Z,72.11
2018-11-21T01:51:53.844Z,72.05
2018-11-21T01:54:22.331Z,72.06
2018-11-21T01:56:50.910Z,72.96
2018-11-21T01:59:19.510Z,72.34
2018-11-21T02:01:48.064Z,71.99
2018-11-21T02:04:16.554Z,72.78
2018-11-21T02:06:45.033Z,72.12
2018-11-21T02:09:13.834Z,72.03
2018-11-21T02:11:42.261Z,71.70
2018-11-21T02:14:11.152Z,71.88
2018-11-21T02:16:39.634Z,72.00
2018-11-21T02:19:08.185Z,71.81
2018-11-21T02:21:36.770Z,72.40
2018-11-21T02:24:05.438Z,72.35
2018-11-21T02:26:33.895Z,71.90
2018-11-21T02:29:02.304Z,72.10
2018-11-21T02:31:30.826Z,72.50
2018-11-21T02:33:59.438Z,72.11
2018-11-21T02:36:27.978Z,71.87
2018-11-21T02:38:56.518Z,71.60
2018-11-21T02:41:24.987Z,72.45
2018-11-21T02:43:53.445Z,71.88
2018-11-21T02:46:22.116Z,72.18
2018-11-21T02:48:50.622Z,71.66
2018-11-21T02:51:19.200Z,71.56
2018-11-21T02:53:47.646Z,72.04
2018-11-21T02:56:16.176Z,72.12
2018-11-21T02:58:44.579Z,72.53
2018-11-21T03:01:13.064Z,72.28
2018-11-21T03:03:41.608Z,72.34
2018-11-21T03:06:10.006Z,72.26
2018-11-21T03:08:38.686Z,72.21
2018-11-21T03:11:07.059Z,72.15
2018-11-21T03:13:35.516Z,72.15
2018-11-21T03:16:04.000Z,72.39
2018-11-21T03:18:32.451Z,72.48
2018-11-21T03:21:01.003Z,72.25
2018-11-21T03:23:29.600Z,73.25
2018-11-21T03:25:58.180Z,72.56
2018-11-21T03:28:26.677Z,72.47
2018-11-21T03:30:55.106Z,72.15
2018-11-21T03:33:23.678Z,72.43
2018-11-21T03:35:52.304Z,72.14
2018-11-21T03:38:20.886Z,72.60
2018-11-21T03:40:49.487Z,72.33
2018-11-21T03:43:18.008Z,72.48
2018-11-21T03:45:46.561Z,72.99
2018-11-21T03:48:15.142Z,72.55
2018-11-21T03:50:43.621Z,72.81
2018-11-21T03:53:12.200Z,72.64
2018-11-21T03:55:40.707Z,72.22
2018-11-21T03:58:09.090Z,71.92
2018-11-21T04:00:37.724Z,72.33
2018-11-21T04:03:06.174Z,72.39
2018-11-21T04:05:37.140Z,72.43
2018-11-21T04:08:05.904Z,72.81
2018-11-21T04:10:34.455Z,72.53
2018-11-21T04:13:03.004Z,72.51
2018-11-21T04:15:31.400Z,72.89
2018-11-21T04:17:59.854Z,72.67
2018-11-21T04:20:28.474Z,72.95
2018-11-21T04:22:56.997Z,73.49
2018-11-21T04:25:25.671Z,73.67
2018-11-21T04:27:54.250Z,74.12
2018-11-21T04:30:22.852Z,74.21
2018-11-21T04:32:51.429Z,74.24
2018-11-21T04:35:19.944Z,73.77
2018-11-21T04:37:48.384Z,74.04
2018-11-21T04:40:16.955Z,74.22
2018-11-21T04:42:45.662Z,74.08
2018-11-21T04:45:14.256Z,74.15
2018-11-21T04:47:42.943Z,74.34
2018-11-21T04:50:11.705Z,74.35
2018-11-21T04:52:40.335Z,74.04
2018-11-21T04:55:09.151Z,74.02
2018-11-21T04:57:37.666Z,73.83
2018-11-21T05:00:07.930Z,74.11
2018-11-21T05:02:36.448Z,74.16
2018-11-21T05:05:05.749Z,75.00
2018-11-21T05:07:34.292Z,74.81
2018-11-21T05:10:02.906Z,74.33
2018-11-21T05:12:31.350Z,74.15
2018-11-21T05:14:59.910Z,74.12
2018-11-21T05:17:28.554Z,74.77
2018-11-21T05:19:57.098Z,74.05
2018-11-21T05:22:25.742Z,74.26
2018-11-21T05:24:54.151Z,74.56
2018-11-21T05:27:22.613Z,74.69
2018-11-21T05:29:51.194Z,74.20
2018-11-21T05:32:19.696Z,74.86
2018-11-21T05:34:48.236Z,74.05
2018-11-21T05:37:16.612Z,74.50
2018-11-21T05:39:45.096Z,74.85
2018-11-21T05:42:13.659Z,74.38
2018-11-21T05:44:42.286Z,74.25
2018-11-21T05:47:10.766Z,74.63
2018-11-21T05:49:39.469Z,74.41
2018-11-21T05:52:07.998Z,74.47
2018-11-21T05:54:36.508Z,75.39
2018-11-21T05:57:05.096Z,75.81
2018-11-21T05:59:33.598Z,75.56
2018-11-21T06:02:02.211Z,75.11
2018-11-21T06:04:30.762Z,74.85
2018-11-21T06:06:59.241Z,75.06
2018-11-21T06:09:27.816Z,74.77
2018-11-21T06:11:56.541Z,74.85
2018-11-21T06:14:25.072Z,75.54
2018-11-21T06:16:53.654Z,75.99
2018-11-21T06:19:22.305Z,75.44
2018-11-21T06:21:50.779Z,74.97
2018-11-21T06:24:19.352Z,75.08
2018-11-21T06:26:59.379Z,75.23
2018-11-21T06:29:28.058Z,74.92
2018-11-21T06:31:56.653Z,74.98
2018-11-21T06:34:25.330Z,75.10
2018-11-21T06:36:53.860Z,74.75
2018-11-21T06:39:22.680Z,74.69
2018-11-21T06:41:51.278Z,74.70
2018-11-21T06:44:19.732Z,74.93
2018-11-21T06:46:48.333Z,75.20
2018-11-21T06:49:16.831Z,74.98
2018-11-21T06:51:45.456Z,74.72
2018-11-21T06:54:14.733Z,74.76
2018-11-21T06:56:43.344Z,75.12
2018-11-21T06:59:11.902Z,74.84
2018-11-21T07:01:40.409Z,75.43
2018-11-21T07:04:09.099Z,75.25
2018-11-21T07:06:37.676Z,75.47
2018-11-21T07:09:09.593Z,76.40
2018-11-21T07:11:38.231Z,76.15
2018-11-21T07:14:07.486Z,75.62
2018-11-21T07:16:37.107Z,75.38
2018-11-21T07:19:05.817Z,75.39
2018-11-21T07:21:34.238Z,76.06
2018-11-21T07:24:02.844Z,76.06
2018-11-21T07:26:31.345Z,76.03
2018-11-21T07:28:59.987Z,76.08
2018-11-21T07:31:28.429Z,76.33
2018-11-21T07:33:56.907Z,76.11
2018-11-21T07:36:25.534Z,76.95
2018-11-21T07:38:54.176Z,76.79
2018-11-21T07:41:23.011Z,76.67
2018-11-21T07:43:51.475Z,76.35
2018-11-21T07:46:20.125Z,76.85
2018-11-21T07:48:48.564Z,76.84
2018-11-21T07:51:17.341Z,77.46
2018-11-21T07:53:45.901Z,77.05
2018-11-21T07:57:00.110Z,76.71
2018-11-21T07:59:28.727Z,77.25
2018-11-21T08:02:04.871Z,76.96
2018-11-21T08:04:46.897Z,77.34
2018-11-21T08:07:27.183Z,77.36
2018-11-21T08:10:20.115Z,77.01
2018-11-21T08:13:10.711Z,76.69
2018-11-21T08:16:01.704Z,77.18
2018-11-21T08:18:46.663Z,76.67
2018-11-21T08:21:43.115Z,76.55
2018-11-21T08:24:17.831Z,76.19
2018-11-21T08:26:54.701Z,76.31
2018-11-21T08:29:23.299Z,76.55
2018-11-21T08:31:51.882Z,76.48
2018-11-21T08:34:20.393Z,76.96
2018-11-21T08:36:49.043Z,76.47
2018-11-21T08:39:18.499Z,76.50
2018-11-21T08:41:47.011Z,76.77
2018-11-21T08:44:15.741Z,76.41
2018-11-21T08:46:44.503Z,76.79
2018-11-21T08:49:13.047Z,76.86
2018-11-21T08:51:41.775Z,76.97
2018-11-21T08:54:10.221Z,77.58
2018-11-21T08:56:38.770Z,77.75
2018-11-21T08:59:07.222Z,77.54
2018-11-21T09:01:35.808Z,77.52
2018-11-21T09:04:04.454Z,77.71
2018-11-21T09:06:35.675Z,77.69
2018-11-21T09:09:05.717Z,77.08
2018-11-21T09:11:34.579Z,76.53
2018-11-21T09:14:04.632Z,76.23
2018-11-21T09:16:33.058Z,77.00
2018-11-21T09:19:02.107Z,76.58
2018-11-21T09:21:30.653Z,77.34
2018-11-21T09:23:59.298Z,77.40
2018-11-21T09:26:28.509Z,77.03
2018-11-21T09:28:57.282Z,77.18
2018-11-21T09:31:26.235Z,78.02
2018-11-21T09:33:55.007Z,77.55
2018-11-21T09:36:24.160Z,76.71
2018-11-21T09:38:52.883Z,76.55
2018-11-21T09:41:21.758Z,76.20
2018-11-21T09:43:56.864Z,76.93
2018-11-21T09:46:25.561Z,77.05
2018-11-21T09:48:54.471Z,77.08
2018-11-21T09:51:24.360Z,77.29
2018-11-21T09:53:53.563Z,77.37
2018-11-21T09:56:22.695Z,77.67
2018-11-21T09:58:54.839Z,77.15
2018-11-21T10:02:00.873Z,77.65
2018-11-21T10:04:38.717Z,77.63
2018-11-21T10:07:01.752Z,77.91
2018-11-21T10:09:39.844Z,77.63
2018-11-21T10:12:08.938Z,77.77
2018-11-21T10:14:37.977Z,78.19
2018-11-21T10:17:07.004Z,78.01
2018-11-21T10:19:36.432Z,78.15
2018-11-21T10:22:07.585Z,78.33
2018-11-21T10:24:34.707Z,77.88
2018-11-21T10:27:03.838Z,78.38
2018-11-21T10:29:35.806Z,78.38
2018-11-21T10:32:07.559Z,78.09
2018-11-21T10:34:36.404Z,78.40
2018-11-21T10:37:05.016Z,78.76
2018-11-21T10:39:34.054Z,78.44
2018-11-21T10:42:02.737Z,77.87
2018-11-21T10:44:33.626Z,77.68
2018-11-21T10:47:02.807Z,77.84
2018-11-21T10:49:31.348Z,78.99
2018-11-21T10:52:00.087Z,79.10
2018-11-21T10:54:28.651Z,78.71
2018-11-21T10:56:57.201Z,78.62
2018-11-21T10:59:32.510Z,78.50
2018-11-21T11:02:18.618Z,78.31
2018-11-21T11:04:52.229Z,78.18
2018-11-21T11:07:42.400Z,78.19
2018-11-21T11:10:29.987Z,77.73
2018-11-21T11:13:35.283Z,77.27
2018-11-21T11:16:17.555Z,78.34
2018-11-21T11:19:08.166Z,78.09
2018-11-21T11:22:04.507Z,78.24
2018-11-21T11:24:50.684Z,78.50
2018-11-21T11:27:42.021Z,78.56
2018-11-21T11:30:35.898Z,78.49
2018-11-21T11:33:32.392Z,77.85
2018-11-21T11:36:22.704Z,77.79
2018-11-21T11:39:09.208Z,78.04
2018-11-21T11:41:55.948Z,77.21
2018-11-21T11:44:42.550Z,77.48
2018-11-21T11:47:30.484Z,77.17
2018-11-21T11:50:17.058Z,77.86
2018-11-21T11:52:56.955Z,78.12
2018-11-21T11:55:43.720Z,78.33
2018-11-21T11:58:33.946Z,77.72
2018-11-21T12:01:20.328Z,77.16
2018-11-21T12:04:12.861Z,77.27
2018-11-21T12:06:54.548Z,76.80
2018-11-21T12:09:57.370Z,77.47
2018-11-21T12:12:43.895Z,77.56
2018-11-21T12:15:37.508Z,77.23
2018-11-21T12:18:26.966Z,77.88
2018-11-21T12:21:20.433Z,77.67
2018-11-21T12:24:06.966Z,77.53
2018-11-21T12:27:00.258Z,77.43
2018-11-21T12:29:46.310Z,77.36
2018-11-21T12:32:39.184Z,77.15
2018-11-21T12:35:20.534Z,76.53
2018-11-21T12:38:07.147Z,77.27
2018-11-21T12:40:54.764Z,77.07
2018-11-21T12:44:04.318Z,77.58
2018-11-21T12:47:06.250Z,76.62
2018-11-21T12:50:02.207Z,76.08
2018-11-21T12:52:51.588Z,75.88
2018-11-21T12:55:48.048Z,76.43
2018-11-21T12:58:34.937Z,75.77
2018-11-21T13:01:21.540Z,75.72
2018-11-21T13:04:07.832Z,75.85
2018-11-21T13:07:07.242Z,75.48
2018-11-21T13:09:56.778Z,75.78
2018-11-21T13:12:35.272Z,75.88
2018-11-21T13:15:43.241Z,75.48
2018-11-21T13:18:34.062Z,75.34
2018-11-21T13:21:20.689Z,75.97
2018-11-21T13:24:26.466Z,76.61
2018-11-21T13:27:19.720Z,76.77
2018-11-21T13:30:00.215Z,76.89
2018-11-21T13:32:52.918Z,76.71
2018-11-21T13:35:49.737Z,76.43
2018-11-21T13:38:46.679Z,77.14
2018-11-21T13:41:34.359Z,77.10
2018-11-21T13:44:37.604Z,77.81
2018-11-21T13:47:30.759Z,78.17
2018-11-21T13:50:21.720Z,77.83
2018-11-21T13:53:08.548Z,77.35
2018-11-21T13:55:40.437Z,78.53
2018-11-21T13:58:09.686Z,78.38
2018-11-21T14:00:41.620Z,78.04
2018-11-21T14:03:11.098Z,78.20
2018-11-21T14:05:42.947Z,79.05
2018-11-21T14:08:12.162Z,80.30
2018-11-21T14:10:44.626Z,79.79
2018-11-21T14:13:17.087Z,78.85
2018-11-21T14:15:45.959Z,79.17
2018-11-21T14:18:14.878Z,78.95
2018-11-21T14:20:55.644Z,78.62
2018-11-21T14:23:24.784Z,78.36
2018-11-21T14:25:53.601Z,78.66
2018-11-21T14:28:22.528Z,78.19
2018-11-21T14:30:51.955Z,78.41
2018-11-21T14:33:20.842Z,78.60
2018-11-21T14:35:52.286Z,78.74
2018-11-21T14:38:18.159Z,79.14
2018-11-21T14:40:46.780Z,79.73
2018-11-21T14:43:15.393Z,79.29
2018-11-21T14:45:44.111Z,79.87
2018-11-21T14:48:13.304Z,79.71
2018-11-21T14:50:42.118Z,79.06
2018-11-21T14:53:18.925Z,79.26
2018-11-21T14:55:47.641Z,79.52
2018-11-21T14:58:16.408Z,80.02
2018-11-21T15:00:45.331Z,80.31
2018-11-21T15:03:18.337Z,80.60
2018-11-21T15:05:42.598Z,80.61
2018-11-21T15:08:11.470Z,79.72
2018-11-21T15:10:40.038Z,79.93
2018-11-21T15:13:08.717Z,80.05
2018-11-21T15:15:37.258Z,79.47
2018-11-21T15:18:09.025Z,79.40
2018-11-21T15:20:37.942Z,80.00
2018-11-21T15:23:06.872Z,79.94
2018-11-21T15:25:35.975Z,79.69
2018-11-21T15:28:05.403Z,79.72
2018-11-21T15:30:33.812Z,80.03
2018-11-21T15:33:03.072Z,79.75
2018-11-21T15:35:35.582Z,79.94
2018-11-21T15:38:04.242Z,79.87
2018-11-21T15:40:33.224Z,80.11
2018-11-21T15:43:01.971Z,80.02
2018-11-21T15:45:30.719Z,80.44
2018-11-21T15:48:01.461Z,80.55
2018-11-21T15:50:31.187Z,79.92
2018-11-21T15:53:00.161Z,79.52
2018-11-21T15:55:29.477Z,79.21
2018-11-21T15:57:58.457Z,79.21
2018-11-21T16:00:28.894Z,79.94
2018-11-21T16:03:00.175Z,79.82
2018-11-21T16:05:29.364Z,80.06
2018-11-21T16:08:03.241Z,79.67
2018-11-21T16:10:34.985Z,79.99
2018-11-21T16:13:04.270Z,79.68
2018-11-21T16:15:43.823Z,79.50
2018-11-21T16:18:12.770Z,79.43
2018-11-21T16:20:41.422Z,79.02
2018-11-21T16:23:10.391Z,79.17
2018-11-21T16:25:39.079Z,79.03
2018-11-21T16:28:11.094Z,79.12
2018-11-21T16:30:40.011Z,79.29
2018-11-21T16:33:11.588Z,79.00
2018-11-21T16:35:40.226Z,79.19
2018-11-21T16:38:11.877Z,79.89
2018-11-21T16:40:40.605Z,79.63
2018-11-21T16:43:09.478Z,79.35
2018-11-21T16:45:40.793Z,79.47
2018-11-21T16:48:09.597Z,79.23
2018-11-21T16:50:38.149Z,79.52
2018-11-21T16:53:07.168Z,79.46
2018-11-21T16:55:35.731Z,79.04
2018-11-21T16:58:04.612Z,79.98
2018-11-21T17:00:33.655Z,79.67
2018-11-21T17:03:02.529Z,80.40
2018-11-21T17:05:31.487Z,80.69
2018-11-21T17:08:00.310Z,80.45
2018-11-21T17:10:30.124Z,80.68
2018-11-21T17:13:01.909Z,80.34
2018-11-21T17:15:39.927Z,79.71
2018-11-21T17:18:08.607Z,80.29
2018-11-21T17:20:39.265Z,79.70
2018-11-21T17:23:07.881Z,79.84
2018-11-21T17:25:37.933Z,79.88
2018-11-21T17:28:06.550Z,79.61
2018-11-21T17:30:35.165Z,79.40
2018-11-21T17:33:03.816Z,79.93
2018-11-21T17:35:32.555Z,80.20
2018-11-21T17:38:02.073Z,80.18
2018-11-21T17:40:35.119Z,81.54
2018-11-21T17:43:03.654Z,81.95
2018-11-21T17:45:32.684Z,82.81
2018-11-21T17:48:01.287Z,82.89
2018-11-21T17:50:29.911Z,83.97
2018-11-21T17:52:59.955Z,84.25
2018-11-21T17:55:29.897Z,84.50
2018-11-21T17:57:58.759Z,85.21
2018-11-21T18:00:29.267Z,84.58
2018-11-21T18:02:57.871Z,84.27
2018-11-21T18:05:31.347Z,84.82
2018-11-21T18:07:59.963Z,85.56
2018-11-21T18:10:30.376Z,86.81
2018-11-21T18:12:59.172Z,86.33
2018-11-21T18:15:28.072Z,85.99
2018-11-21T18:17:57.013Z,87.40
2018-11-21T18:20:25.955Z,86.85
2018-11-21T18:22:54.641Z,87.41
2018-11-21T18:25:31.296Z,87.17
2018-11-21T18:28:00.710Z,87.11
2018-11-21T18:30:29.309Z,86.54
2018-11-21T18:32:58.039Z,87.27
2018-11-21T18:35:26.781Z,86.35
2018-11-21T18:37:58.949Z,86.00
2018-11-21T18:40:29.100Z,85.80
2018-11-21T18:42:57.881Z,85.82
2018-11-21T18:45:29.591Z,85.75
2018-11-21T18:47:58.125Z,85.68
2018-11-21T18:50:26.767Z,85.20
2018-11-21T18:52:56.875Z,85.54
2018-11-21T18:55:30.458Z,86.05
2018-11-21T18:58:17.355Z,86.42
2018-11-21T19:00:48.369Z,86.35
2018-11-21T19:03:16.859Z,86.27
2018-11-21T19:05:45.415Z,85.49
2018-11-21T19:08:16.503Z,85.34
2018-11-21T19:10:44.953Z,86.00
2018-11-21T19:13:13.574Z,85.28
2018-11-21T19:15:42.230Z,84.90
2018-11-21T19:18:11.692Z,84.21
2018-11-21T19:20:40.066Z,83.47
2018-11-21T19:23:08.630Z,83.69
2018-11-21T19:25:37.211Z,83.46
2018-11-21T19:28:05.770Z,84.28
2018-11-21T19:30:34.286Z,83.39
2018-11-21T19:33:02.797Z,83.66
2018-11-21T19:35:31.457Z,83.29
2018-11-21T19:37:59.951Z,83.09
2018-11-21T19:40:28.467Z,83.36
2018-11-21T19:42:57.457Z,83.86
2018-11-21T19:45:26.154Z,83.49
2018-11-21T19:47:54.720Z,83.91
2018-11-21T19:50:23.581Z,83.93
2018-11-21T19:52:52.573Z,83.78
2018-11-21T19:55:25.819Z,83.62
2018-11-21T19:57:54.414Z,83.65
2018-11-21T20:00:24.699Z,84.34
2018-11-21T20:02:53.715Z,83.75
2018-11-21T20:05:22.281Z,83.30
2018-11-21T20:07:51.102Z,83.27
2018-11-21T20:10:20.632Z,83.22
2018-11-21T20:12:49.215Z,83.57
2018-11-21T20:15:19.419Z,83.12
2018-11-21T20:17:50.461Z,83.16
2018-11-21T20:20:19.979Z,82.91
2018-11-21T20:22:49.183Z,83.16
2018-11-21T20:25:19.074Z,82.56
2018-11-21T20:27:47.642Z,82.88
2018-11-21T20:30:21.332Z,82.99
2018-11-21T20:32:49.858Z,83.16
2018-11-21T20:35:18.841Z,82.88
2018-11-21T20:37:47.756Z,82.90
2018-11-21T20:40:21.088Z,82.49
2018-11-21T20:42:50.111Z,82.50
2018-11-21T20:45:20.480Z,82.56
2018-11-21T20:47:50.207Z,83.28
2018-11-21T20:50:18.645Z,83.29
2018-11-21T20:52:48.123Z,83.28
2018-11-21T20:55:17.522Z,83.45
2018-11-21T20:57:49.085Z,82.72
2018-11-21T21:00:22.649Z,82.71
2018-11-21T21:02:51.529Z,83.14
2018-11-21T21:05:21.845Z,82.69
2018-11-21T21:07:50.472Z,82.23
2018-11-21T21:10:20.638Z,82.87
2018-11-21T21:12:51.947Z,82.87
2018-11-21T21:15:20.524Z,83.04
2018-11-21T21:17:49.932Z,83.23
2018-11-21T21:20:20.606Z,83.25
2018-11-21T21:22:50.777Z,82.78
2018-11-21T21:25:21.006Z,82.30
2018-11-21T21:27:49.598Z,82.33
2018-11-21T21:30:19.719Z,82.06
2018-11-21T21:32:48.710Z,82.00
2018-11-21T21:35:18.104Z,82.70
2018-11-21T21:37:46.800Z,82.53
2018-11-21T21:40:20.234Z,83.08
2018-11-21T21:42:45.534Z,83.04
2018-11-21T21:45:15.888Z,82.76
2018-11-21T21:47:48.380Z,82.65
2018-11-21T21:50:18.884Z,82.50
2018-11-21T21:52:48.854Z,82.45
2018-11-21T21:55:20.377Z,81.79
2018-11-21T21:57:48.811Z,82.35
2018-11-21T22:00:19.207Z,81.88
2018-11-21T22:02:48.461Z,81.48
2018-11-21T22:05:17.037Z,81.73
2018-11-21T22:07:45.567Z,81.62
2018-11-21T22:10:15.234Z,82.05
2018-11-21T22:12:43.735Z,81.89
2018-11-21T22:15:32.171Z,81.25
2018-11-21T22:18:02.382Z,81.15
2018-11-21T22:20:31.635Z,81.33
2018-11-21T22:23:00.246Z,81.26
2018-11-21T22:25:28.848Z,81.92
2018-11-21T22:27:57.596Z,81.65
2018-11-21T22:30:26.362Z,81.78
2018-11-21T22:32:55.627Z,81.83
2018-11-21T22:35:25.924Z,81.82
2018-11-21T22:37:54.496Z,82.04
2018-11-21T22:40:23.467Z,82.20
2018-11-21T22:42:51.957Z,82.00
2018-11-21T22:45:21.428Z,82.30
2018-11-21T22:47:49.987Z,82.10
2018-11-21T22:50:22.826Z,82.25
2018-11-21T22:52:51.411Z,81.88
2018-11-21T22:55:20.402Z,81.49
2018-11-21T22:57:49.671Z,82.56
2018-11-21T23:00:20.999Z,82.47
2018-11-21T23:02:49.568Z,82.19
2018-11-21T23:05:18.268Z,82.72
2018-11-21T23:07:46.862Z,82.62
2018-11-21T23:10:16.667Z,82.68
2018-11-21T23:12:45.050Z,84.12
2018-11-21T23:15:13.905Z,83.47
2018-11-21T23:17:42.480Z,84.00
2018-11-21T23:20:13.005Z,84.96
2018-11-21T23:22:41.551Z,84.50
2018-11-21T23:25:11.404Z,84.78
2018-11-21T23:27:40.547Z,84.64
2018-11-21T23:30:14.836Z,84.55
2018-11-21T23:32:43.300Z,84.46
2018-11-21T23:35:13.185Z,84.76
2018-11-21T23:37:41.681Z,84.63
2018-11-21T23:40:11.804Z,85.20
2018-11-21T23:42:41.412Z,85.46
2018-11-21T23:45:11.594Z,85.29
2018-11-21T23:47:40.181Z,84.85
2018-11-21T23:50:10.143Z,84.51
2018-11-21T23:52:39.256Z,84.31
2018-11-21T23:55:10.003Z,84.27
2018-11-21T23:57:38.520Z,84.27
